Terminal Aerodrome Forecast
Issued by NWS

Home | Current Version | Previous Version | Text Only | Print | Product List | Glossary Off
Versions: 1 2 3 4 5 6 7 8 9 10 11 12 13 14 15 16 17 18 19 20 21 22 23 24 25 26 27 28 29 30 31 32

910
FTUS43 KABR 012320
TAFATY
TAF
KATY 012320Z 0200/0224 36006KT P6SM BKN013 OVC019
     FM020500 32004KT P6SM -FZDZ OVC010
     FM020900 33004KT 3SM -FZDZ BR OVC008
     FM021500 34004KT P6SM OVC008
     FM021700 32005KT P6SM OVC010=

USA.gov is the U.S. government's official web portal to all federal, state and local government web resources and services.